NCAR-RAP Real-Time Weather Data

Output produced by METARs form (20 February 2019  18:28 UTC)
found at http://weather.rap.ucar.edu/surface/
 
Conditions at: KMCF observed 20 February 2019  17:56 UTC
Temperature: 28.4°C (83°F)
Dewpoint: 20.1°C (68°F) [RH = 61%]
Pressure (altimeter): 30.06 inches Hg (1018.0 mb)
[Sea-level pressure: 1018.2 mb]
Winds: from the SSE (160 degrees) at 16 MPH (14 knots; 7.3 m/s)
Visibility: 10 or more miles (16+ km)
Ceiling: at least 12,000 feet AGL
Clouds: few clouds at 19000 feet AGL
few clouds at 22000 feet AGL
Present Weather:
SOME DATA ABOVE MAY BE INACCURATE!!!
"$" is an indication the sensor requires maintenance
KMCF 201756Z AUTO 16014KT 10SM FEW190 FEW220 28/20 A3006 RMK AO2 SLP182 T02840201 10284 20219 58016 FZRANO $

Conditions at: KMCF observed 20 February 2019  16:56 UTC
Temperature: 27.7°C (82°F)
Dewpoint: 21.0°C (70°F) [RH = 67%]
Pressure (altimeter): 30.09 inches Hg (1019.0 mb)
[Sea-level pressure: 1019.3 mb]
Winds: from the SE (140 degrees) at 16 MPH (14 knots; 7.3 m/s)
Visibility: 10 or more miles (16+ km)
Ceiling: at least 12,000 feet AGL
Clouds: few clouds at 3500 feet AGL
Present Weather:
SOME DATA ABOVE MAY BE INACCURATE!!!
"$" is an indication the sensor requires maintenance
KMCF 201656Z AUTO 14014KT 10SM FEW035 28/21 A3009 RMK AO2 SLP193 T02770210 FZRANO $

Conditions at: KMCF observed 20 February 2019  15:56 UTC
Temperature: 27.0°C (81°F)
Dewpoint: 21.3°C (70°F) [RH = 71%]
Pressure (altimeter): 30.10 inches Hg (1019.4 mb)
[Sea-level pressure: 1019.6 mb]
Winds: from the SSE (150 degrees) at 16 MPH (14 knots; 7.3 m/s)
Visibility: 10 or more miles (16+ km)
Ceiling: at least 12,000 feet AGL
Clouds: few clouds at 2400 feet AGL
Present Weather:
SOME DATA ABOVE MAY BE INACCURATE!!!
"$" is an indication the sensor requires maintenance
KMCF 201556Z AUTO 15014KT 10SM FEW024 27/21 A3010 RMK AO2 SLP196 T02700213 FZRANO $

Conditions at: KMCF observed 20 February 2019  15:26 UTC
Temperature: 26.0°C (79°F)
Dewpoint: 21.0°C (70°F) [RH = 74%]
Pressure (altimeter): 30.11 inches Hg (1019.7 mb)
[Sea-level pressure: 1019.9 mb]
Winds: from the SE (140 degrees) at 14 MPH (12 knots; 6.2 m/s)
Visibility: 10 or more miles (16+ km)
Ceiling: at least 12,000 feet AGL
Clouds: scattered clouds at 1900 feet AGL
Present Weather:
SOME DATA ABOVE MAY BE INACCURATE!!!
"$" is an indication the sensor requires maintenance
KMCF 201526Z AUTO 14012KT 10SM SCT019 26/21 A3011 RMK AO2 SLP199 FZRANO $

Conditions at: KMCF observed 20 February 2019  15:21 UTC
Temperature: 26.0°C (79°F)
Dewpoint: 21.0°C (70°F) [RH = 74%]
Pressure (altimeter): 30.11 inches Hg (1019.7 mb)
[Sea-level pressure: 1019.9 mb]
Winds: from the SE (140 degrees) at 15 MPH (13 knots; 6.8 m/s)
Visibility: 10 or more miles (16+ km)
Ceiling: 1900 feet AGL
Clouds: broken clouds at 1900 feet AGL
Present Weather:
SOME DATA ABOVE MAY BE INACCURATE!!!
"$" is an indication the sensor requires maintenance
KMCF 201521Z AUTO 14013KT 10SM BKN019 26/21 A3011 RMK AO2 BKN V SCT SLP199 FZRANO $

Conditions at: KMCF observed 20 February 2019  15:11 UTC
Temperature: 26.0°C (79°F)
Dewpoint: 21.0°C (70°F) [RH = 74%]
Pressure (altimeter): 30.11 inches Hg (1019.7 mb)
[Sea-level pressure: 1019.9 mb]
Winds: from the SE (140 degrees) at 16 MPH (14 knots; 7.3 m/s)
Visibility: 10 or more miles (16+ km)
Ceiling: at least 12,000 feet AGL
Clouds: scattered clouds at 1700 feet AGL
Present Weather:
SOME DATA ABOVE MAY BE INACCURATE!!!
"$" is an indication the sensor requires maintenance
KMCF 201511Z AUTO 14014KT 10SM SCT017 26/21 A3011 RMK AO2 SLP199 FZRANO $

Conditions at: KMCF observed 20 February 2019  15:06 UTC
Temperature: 26.0°C (79°F)
Dewpoint: 21.0°C (70°F) [RH = 74%]
Pressure (altimeter): 30.11 inches Hg (1019.7 mb)
[Sea-level pressure: 1019.9 mb]
Winds: from the SE (140 degrees) at 15 MPH (13 knots; 6.8 m/s)
Visibility: 10 or more miles (16+ km)
Ceiling: 1700 feet AGL
Clouds: broken clouds at 1700 feet AGL
Present Weather:
SOME DATA ABOVE MAY BE INACCURATE!!!
"$" is an indication the sensor requires maintenance
KMCF 201506Z AUTO 14013KT 10SM BKN017 26/21 A3011 RMK AO2 BKN V SCT SLP199 FZRANO $

Conditions at: KMCF observed 20 February 2019  15:01 UTC
Temperature: 26.0°C (79°F)
Dewpoint: 21.0°C (70°F) [RH = 74%]
Pressure (altimeter): 30.11 inches Hg (1019.7 mb)
[Sea-level pressure: 1019.9 mb]
Winds: from the SE (140 degrees) at 16 MPH (14 knots; 7.3 m/s)
Visibility: 10 or more miles (16+ km)
Ceiling: at least 12,000 feet AGL
Clouds: scattered clouds at 1700 feet AGL
Present Weather:
SOME DATA ABOVE MAY BE INACCURATE!!!
"$" is an indication the sensor requires maintenance
KMCF 201501Z AUTO 14014KT 10SM SCT017 26/21 A3011 RMK AO2 SLP199 FZRANO $

Conditions at: KMCF observed 20 February 2019  14:56 UTC
Temperature: 25.4°C (78°F)
Dewpoint: 21.0°C (70°F) [RH = 77%]
Pressure (altimeter): 30.11 inches Hg (1019.7 mb)
[Sea-level pressure: 1019.9 mb]
Winds: from the SE (140 degrees) at 17 MPH (15 knots; 7.8 m/s)
Visibility: 10 or more miles (16+ km)
Ceiling: at least 12,000 feet AGL
Clouds: scattered clouds at 1700 feet AGL
Present Weather:
SOME DATA ABOVE MAY BE INACCURATE!!!
"$" is an indication the sensor requires maintenance
KMCF 201456Z COR AUTO 14015KT 10SM SCT017 25/21 A3011 RMK AO2 SLP199 T02540210 51008 FZRANO $ COR 1501

Conditions at: KMCF observed 20 February 2019  14:42 UTC
Temperature: 25.0°C (77°F)
Dewpoint: 21.0°C (70°F) [RH = 79%]
Pressure (altimeter): 30.11 inches Hg (1019.7 mb)
[Sea-level pressure: 1019.9 mb]
Winds: from the SE (140 degrees) at 15 MPH (13 knots; 6.8 m/s)
gusting to 22 MPH (19 knots; 9.9 m/s)
Visibility: 10 or more miles (16+ km)
Ceiling: 1600 feet AGL
Clouds: broken clouds at 1600 feet AGL
Present Weather:
SOME DATA ABOVE MAY BE INACCURATE!!!
"$" is an indication the sensor requires maintenance
KMCF 201442Z AUTO 14013G19KT 10SM BKN016 25/21 A3011 RMK AO2 BKN V SCT SLP199 FZRANO $

Conditions at: KMCF observed 20 February 2019  13:56 UTC
Temperature: 23.9°C (75°F)
Dewpoint: 21.0°C (70°F) [RH = 84%]
Pressure (altimeter): 30.10 inches Hg (1019.4 mb)
[Sea-level pressure: 1019.6 mb]
Winds: from the SE (130 degrees) at 16 MPH (14 knots; 7.3 m/s)
Visibility: 10 or more miles (16+ km)
Ceiling: at least 12,000 feet AGL
Clouds: sky clear below 12,000 feet AGL
Present Weather:
SOME DATA ABOVE MAY BE INACCURATE!!!
"$" is an indication the sensor requires maintenance
KMCF 201356Z AUTO 13014KT 10SM CLR 24/21 A3010 RMK AO2 SLP196 T02390210 FZRANO $

Conditions at: KMCF observed 20 February 2019  11:56 UTC
Temperature: 21.9°C (71°F)
Dewpoint: 20.0°C (68°F) [RH = 89%]
Pressure (altimeter): 30.08 inches Hg (1018.7 mb)
[Sea-level pressure: 1018.9 mb]
Winds: from the ESE (120 degrees) at 10 MPH (9 knots; 4.7 m/s)
Visibility: 10 or more miles (16+ km)
Ceiling: 8000 feet AGL
Clouds: overcast cloud deck at 8000 feet AGL
Present Weather:
SOME DATA ABOVE MAY BE INACCURATE!!!
"$" is an indication the sensor requires maintenance
KMCF 201156Z AUTO 12009KT 10SM OVC080 22/20 A3008 RMK AO2 SLP189 T02190200 10219 20209 53003 FZRANO $

Conditions at: KMCF observed 20 February 2019  10:56 UTC
Temperature: 21.7°C (71°F)
Dewpoint: 19.8°C (68°F) [RH = 89%]
Pressure (altimeter): 30.07 inches Hg (1018.4 mb)
[Sea-level pressure: 1018.6 mb]
Winds: from the SE (130 degrees) at 13 MPH (11 knots; 5.7 m/s)
Visibility: 10 or more miles (16+ km)
Ceiling: 7000 feet AGL
Clouds: few clouds at 4200 feet AGL
broken clouds at 7000 feet AGL
Present Weather:
SOME DATA ABOVE MAY BE INACCURATE!!!
"$" is an indication the sensor requires maintenance
KMCF 201056Z AUTO 13011KT 10SM FEW042 BKN070 22/20 A3007 RMK AO2 SLP186 T02170198 FZRANO $

Conditions at: KMCF observed 20 February 2019  09:56 UTC
Temperature: 21.3°C (70°F)
Dewpoint: 19.4°C (67°F) [RH = 89%]
Pressure (altimeter): 30.06 inches Hg (1018.0 mb)
[Sea-level pressure: 1018.2 mb]
Winds: from the SE (140 degrees) at 9 MPH (8 knots; 4.2 m/s)
Visibility: 10 or more miles (16+ km)
Ceiling: 7500 feet AGL
Clouds: broken clouds at 7500 feet AGL
Present Weather:
SOME DATA ABOVE MAY BE INACCURATE!!!
"$" is an indication the sensor requires maintenance
KMCF 200956Z AUTO 14008KT 10SM BKN075 21/19 A3006 RMK AO2 SLP182 T02130194 FZRANO $

Conditions at: KMCF observed 20 February 2019  08:56 UTC
Temperature: 21.0°C (70°F)
Dewpoint: 19.1°C (66°F) [RH = 89%]
Pressure (altimeter): 30.07 inches Hg (1018.4 mb)
[Sea-level pressure: 1018.6 mb]
Winds: from the SE (130 degrees) at 8 MPH (7 knots; 3.6 m/s)
Visibility: 10 or more miles (16+ km)
Ceiling: at least 12,000 feet AGL
Clouds: sky clear below 12,000 feet AGL
Present Weather:
SOME DATA ABOVE MAY BE INACCURATE!!!
"$" is an indication the sensor requires maintenance
KMCF 200856Z AUTO 13007KT 10SM CLR 21/19 A3007 RMK AO2 SLP186 T02100191 57013 FZRANO $

Conditions at: KMCF observed 20 February 2019  07:56 UTC
Temperature: 21.1°C (70°F)
Dewpoint: 18.8°C (66°F) [RH = 87%]
Pressure (altimeter): 30.08 inches Hg (1018.7 mb)
[Sea-level pressure: 1018.9 mb]
Winds: from the SE (130 degrees) at 7 MPH (6 knots; 3.1 m/s)
Visibility: 10 or more miles (16+ km)
Ceiling: at least 12,000 feet AGL
Clouds: sky clear below 12,000 feet AGL
Present Weather:
SOME DATA ABOVE MAY BE INACCURATE!!!
"$" is an indication the sensor requires maintenance
KMCF 200756Z AUTO 13006KT 10SM CLR 21/19 A3008 RMK AO2 SLP189 T02110188 FZRANO $

Conditions at: KMCF observed 20 February 2019  06:56 UTC
Temperature: 21.0°C (70°F)
Dewpoint: 19.0°C (66°F) [RH = 88%]
Pressure (altimeter): 30.10 inches Hg (1019.4 mb)
[Sea-level pressure: 1019.6 mb]
Winds: from the E (100 degrees) at 9 MPH (8 knots; 4.2 m/s)
Visibility: 10 or more miles (16+ km)
Ceiling: at least 12,000 feet AGL
Clouds: sky clear below 12,000 feet AGL
Present Weather: automated observation with no human augmentation;
there may or may not be significant weather present at this time
KMCF 200656Z AUTO 10008KT 10SM CLR 21/19 A3010 RMK AO2 SLP196

Conditions at: KMCF observed 20 February 2019  05:56 UTC
Temperature: 21.6°C (71°F)
Dewpoint: 18.2°C (65°F) [RH = 81%]
Pressure (altimeter): 30.11 inches Hg (1019.7 mb)
[Sea-level pressure: 1019.9 mb]
Winds: from the E (100 degrees) at 9 MPH (8 knots; 4.2 m/s)
Visibility: 10 or more miles (16+ km)
Ceiling: at least 12,000 feet AGL
Clouds: sky clear below 12,000 feet AGL
Present Weather:
SOME DATA ABOVE MAY BE INACCURATE!!!
"$" is an indication the sensor requires maintenance
KMCF 200556Z AUTO 10008KT 10SM CLR 22/18 A3011 RMK AO2 SLP199 T02160182 10245 20211 57011 FZRANO $

Conditions at: KMCF observed 20 February 2019  04:56 UTC
Temperature: 22.0°C (72°F)
Dewpoint: 18.4°C (65°F) [RH = 80%]
Pressure (altimeter): 30.12 inches Hg (1020.1 mb)
[Sea-level pressure: 1020.3 mb]
Winds: from the ESE (110 degrees) at 9 MPH (8 knots; 4.2 m/s)
Visibility: 10 or more miles (16+ km)
Ceiling: at least 12,000 feet AGL
Clouds: sky clear below 12,000 feet AGL
Present Weather:
SOME DATA ABOVE MAY BE INACCURATE!!!
"$" is an indication the sensor requires maintenance
KMCF 200456Z AUTO 11008KT 10SM CLR 22/18 A3012 RMK AO2 SLP203 T02200184 403030179 FZRANO $

Conditions at: KMCF observed 20 February 2019  03:56 UTC
Temperature: 22.8°C (73°F)
Dewpoint: 18.9°C (66°F) [RH = 79%]
Pressure (altimeter): 30.14 inches Hg (1020.7 mb)
[Sea-level pressure: 1020.9 mb]
Winds: from the SSE (150 degrees) at 6 MPH (5 knots; 2.6 m/s)
Visibility: 10 or more miles (16+ km)
Ceiling: at least 12,000 feet AGL
Clouds: sky clear below 12,000 feet AGL
Present Weather:
SOME DATA ABOVE MAY BE INACCURATE!!!
"$" is an indication the sensor requires maintenance
KMCF 200356Z AUTO 15005KT 10SM CLR 23/19 A3014 RMK AO2 SLP209 T02280189 FZRANO $

Conditions at: KMCF observed 20 February 2019  02:56 UTC
Temperature: 23.7°C (75°F)
Dewpoint: 18.8°C (66°F) [RH = 74%]
Pressure (altimeter): 30.14 inches Hg (1020.7 mb)
[Sea-level pressure: 1020.9 mb]
Winds: from the SSE (160 degrees) at 5 MPH (4 knots; 2.1 m/s)
Visibility: 10 or more miles (16+ km)
Ceiling: at least 12,000 feet AGL
Clouds: sky clear below 12,000 feet AGL
Present Weather:
SOME DATA ABOVE MAY BE INACCURATE!!!
"$" is an indication the sensor requires maintenance
KMCF 200256Z AUTO 16004KT 10SM CLR 24/19 A3014 RMK AO2 SLP209 T02370188 52018 FZRANO $

Conditions at: KMCF observed 20 February 2019  01:56 UTC
Temperature: 21.3°C (70°F)
Dewpoint: 18.5°C (65°F) [RH = 84%]
Pressure (altimeter): 30.13 inches Hg (1020.4 mb)
[Sea-level pressure: 1020.6 mb]
Winds: calm
Visibility: 10 or more miles (16+ km)
Ceiling: at least 12,000 feet AGL
Clouds: scattered clouds at 5000 feet AGL
Present Weather:
SOME DATA ABOVE MAY BE INACCURATE!!!
"$" is an indication the sensor requires maintenance
KMCF 200156Z AUTO 00000KT 10SM SCT050 21/19 A3013 RMK AO2 SLP206 T02130185 FZRANO $

Conditions at: KMCF observed 20 February 2019  00:56 UTC
Temperature: 24.0°C (75°F)
Dewpoint: 19.0°C (66°F) [RH = 74%]
Pressure (altimeter): 30.12 inches Hg (1020.1 mb)
[Sea-level pressure: 1020.3 mb]
Winds: from the W (280 degrees) at 3 MPH (3 knots; 1.6 m/s)
Visibility: 10 or more miles (16+ km)
Ceiling: at least 12,000 feet AGL
Clouds: few clouds at 6500 feet AGL
Present Weather: automated observation with no human augmentation;
there may or may not be significant weather present at this time
KMCF 200056Z AUTO 28003KT 10SM FEW065 24/19 A3012 RMK AO2 SLP203

Conditions at: KMCF observed 19 February 2019  23:56 UTC
Temperature: 24.5°C (76°F)
Dewpoint: 20.2°C (68°F) [RH = 77%]
Pressure (altimeter): 30.09 inches Hg (1019.0 mb)
[Sea-level pressure: 1019.3 mb]
Winds: from the SW (220 degrees) at 3 MPH (3 knots; 1.6 m/s)
Visibility: 10 or more miles (16+ km)
Ceiling: at least 12,000 feet AGL
Clouds: scattered clouds at 5500 feet AGL
Present Weather:
SOME DATA ABOVE MAY BE INACCURATE!!!
"$" is an indication the sensor requires maintenance
KMCF 192356Z AUTO 22003KT 10SM SCT055 25/20 A3009 RMK AO2 DZB07E22RAB22E52 SLP193 P0000 60000 T02450202 10303 20245 55001 FZRANO $

Conditions at: KMCF observed 19 February 2019  23:52 UTC
Temperature: 25.0°C (77°F)
Dewpoint: 20.0°C (68°F) [RH = 74%]
Pressure (altimeter): 30.09 inches Hg (1019.0 mb)
[Sea-level pressure: 1019.3 mb]
Winds: from the SSW (200 degrees) at 5 MPH (4 knots; 2.1 m/s)
Visibility: 10 or more miles (16+ km)
Ceiling: at least 12,000 feet AGL
Clouds: scattered clouds at 5500 feet AGL
Present Weather:
SOME DATA ABOVE MAY BE INACCURATE!!!
"$" is an indication the sensor requires maintenance
KMCF 192352Z AUTO 20004KT 10SM SCT055 25/20 A3009 RMK AO2 DZB07E22RAB22E52 SLP193 FZRANO $

Conditions at: KMCF observed 19 February 2019  23:26 UTC
Temperature: 25.0°C (77°F)
Dewpoint: 21.0°C (70°F) [RH = 79%]
Pressure (altimeter): 30.08 inches Hg (1018.7 mb)
[Sea-level pressure: 1018.9 mb]
Winds: calm
Visibility: 10 or more miles (16+ km)
Ceiling: at least 12,000 feet AGL
Clouds: few clouds at 5500 feet AGL
Present Weather: -RA  (light rain)
SOME DATA ABOVE MAY BE INACCURATE!!!
"$" is an indication the sensor requires maintenance
KMCF 192326Z AUTO 00000KT 10SM -RA FEW055 25/21 A3008 RMK AO2 DZB07E22RAB22 SLP189 FZRANO $

Conditions at: KMCF observed 19 February 2019  22:56 UTC
Temperature: 26.1°C (79°F)
Dewpoint: 19.5°C (67°F) [RH = 67%]
Pressure (altimeter): 30.08 inches Hg (1018.7 mb)
[Sea-level pressure: 1018.9 mb]
Winds: from the WSW (240 degrees) at 6 MPH (5 knots; 2.6 m/s)
Visibility: 10 or more miles (16+ km)
Ceiling: at least 12,000 feet AGL
Clouds: sky clear below 12,000 feet AGL
Present Weather:
SOME DATA ABOVE MAY BE INACCURATE!!!
"$" is an indication the sensor requires maintenance
KMCF 192256Z AUTO 24005KT 10SM CLR 26/20 A3008 RMK AO2 SLP189 T02610195 FZRANO $

Conditions at: KMCF observed 19 February 2019  21:56 UTC
Temperature: 28.9°C (84°F)
Dewpoint: 19.5°C (67°F) [RH = 57%]
Pressure (altimeter): 30.08 inches Hg (1018.7 mb)
[Sea-level pressure: 1018.9 mb]
Winds: calm
Visibility: 10 or more miles (16+ km)
Ceiling: 8000 feet AGL
Clouds: scattered clouds at 5000 feet AGL
scattered clouds at 6500 feet AGL
broken clouds at 8000 feet AGL
Present Weather:
SOME DATA ABOVE MAY BE INACCURATE!!!
"$" is an indication the sensor requires maintenance
KMCF 192156Z AUTO 00000KT 10SM SCT050 SCT065 BKN080 29/20 A3008 RMK AO2 SLP189 T02890195 FZRANO $

Conditions at: KMCF observed 19 February 2019  20:56 UTC
Temperature: 30.1°C (86°F)
Dewpoint: 18.8°C (66°F) [RH = 51%]
Pressure (altimeter): 30.09 inches Hg (1019.0 mb)
[Sea-level pressure: 1019.3 mb]
Winds: from the W (270 degrees) at 5 MPH (4 knots; 2.1 m/s)
Visibility: 10 or more miles (16+ km)
Ceiling: at least 12,000 feet AGL
Clouds: few clouds at 5500 feet AGL
few clouds at 7500 feet AGL
Present Weather:
SOME DATA ABOVE MAY BE INACCURATE!!!
"$" is an indication the sensor requires maintenance
KMCF 192056Z AUTO 27004KT 10SM FEW055 FEW075 30/19 A3009 RMK AO2 SLP193 T03010188 57028 FZRANO $

Conditions at: KMCF observed 19 February 2019  19:56 UTC
Temperature: 30.0°C (86°F)
Dewpoint: 19.3°C (67°F) [RH = 53%]
Pressure (altimeter): 30.11 inches Hg (1019.7 mb)
[Sea-level pressure: 1019.9 mb]
Winds: from the W (260 degrees) at 5 MPH (4 knots; 2.1 m/s)
Visibility: 10 or more miles (16+ km)
Ceiling: at least 12,000 feet AGL
Clouds: sky clear below 12,000 feet AGL
Present Weather:
SOME DATA ABOVE MAY BE INACCURATE!!!
"$" is an indication the sensor requires maintenance
KMCF 191956Z AUTO 26004KT 10SM CLR 30/19 A3011 RMK AO2 SLP199 T03000193 FZRANO $

Conditions at: KMCF observed 19 February 2019  18:56 UTC
Temperature: 28.6°C (83°F)
Dewpoint: 20.8°C (69°F) [RH = 63%]
Pressure (altimeter): 30.14 inches Hg (1020.7 mb)
[Sea-level pressure: 1020.9 mb]
Winds: from the S (190 degrees) at 6 MPH (5 knots; 2.6 m/s)
Visibility: 10 or more miles (16+ km)
Ceiling: at least 12,000 feet AGL
Clouds: sky clear below 12,000 feet AGL
Present Weather:
SOME DATA ABOVE MAY BE INACCURATE!!!
"$" is an indication the sensor requires maintenance
KMCF 191856Z AUTO 19005KT 10SM CLR 29/21 A3014 RMK AO2 SLP209 T02860208 FZRANO $